sensor_id;sensor_type;location;lat;lon;timestamp;pressure;altitude;pressure_sealevel;temperature;humidity
10008;BME280;5043;41.766;26.204;2023-10-31T00:01:11;101161.66;;;14.85;95.58
10008;BME280;5043;41.766;26.204;2023-10-31T00:03:36;101139.38;;;14.66;95.44
10008;BME280;5043;41.766;26.204;2023-10-31T00:06:02;101155.59;;;14.63;95.28
10008;BME280;5043;41.766;26.204;2023-10-31T00:08:27;101145.25;;;14.37;95.70
10008;BME280;5043;41.766;26.204;2023-10-31T00:10:53;101150.22;;;14.31;96.03
10008;BME280;5043;41.766;26.204;2023-10-31T00:13:18;101157.56;;;14.27;96.21
10008;BME280;5043;41.766;26.204;2023-10-31T00:15:43;101142.13;;;14.10;96.33
10008;BME280;5043;41.766;26.204;2023-10-31T00:18:09;101160.72;;;13.99;96.69
10008;BME280;5043;41.766;26.204;2023-10-31T00:20:34;101173.72;;;13.91;96.73
10008;BME280;5043;41.766;26.204;2023-10-31T00:23:00;101152.00;;;13.86;97.24
10008;BME280;5043;41.766;26.204;2023-10-31T00:25:25;101154.44;;;13.89;97.23
10008;BME280;5043;41.766;26.204;2023-10-31T00:27:51;101146.09;;;13.71;97.72
10008;BME280;5043;41.766;26.204;2023-10-31T00:30:16;101157.19;;;13.76;98.04
10008;BME280;5043;41.766;26.204;2023-10-31T00:32:42;101157.44;;;13.73;98.33
10008;BME280;5043;41.766;26.204;2023-10-31T00:35:08;101145.72;;;13.65;98.71
10008;BME280;5043;41.766;26.204;2023-10-31T00:37:33;101125.47;;;13.53;99.00
10008;BME280;5043;41.766;26.204;2023-10-31T00:39:58;101141.50;;;13.51;99.29
10008;BME280;5043;41.766;26.204;2023-10-31T00:42:24;101147.78;;;13.50;99.83
10008;BME280;5043;41.766;26.204;2023-10-31T00:44:49;101148.00;;;13.47;100.00
10008;BME280;5043;41.766;26.204;2023-10-31T00:47:15;101158.47;;;13.38;100.00
10008;BME280;5043;41.766;26.204;2023-10-31T00:49:41;101143.13;;;13.30;100.00
10008;BME280;5043;41.766;26.204;2023-10-31T00:52:06;101150.00;;;13.33;100.00
10008;BME280;5043;41.766;26.204;2023-10-31T00:54:32;101145.78;;;13.30;100.00
10008;BME280;5043;41.766;26.204;2023-10-31T00:56:57;101137.59;;;13.22;100.00
10008;BME280;5043;41.766;26.204;2023-10-31T00:59:23;101156.38;;;13.30;100.00
10008;BME280;5043;41.766;26.204;2023-10-31T01:01:49;101132.88;;;13.26;100.00
10008;BME280;5043;41.766;26.204;2023-10-31T01:04:14;101142.41;;;13.28;100.00
10008;BME280;5043;41.766;26.204;2023-10-31T01:06:43;101136.50;;;13.25;100.00
10008;BME280;5043;41.766;26.204;2023-10-31T01:09:09;101132.28;;;13.22;100.00
10008;BME280;5043;41.766;26.204;2023-10-31T01:11:35;101127.22;;;13.19;100.00
10008;BME280;5043;41.766;26.204;2023-10-31T01:14:01;101128.41;;;13.15;100.00
10008;BME280;5043;41.766;26.204;2023-10-31T01:16:27;101119.34;;;13.06;100.00
10008;BME280;5043;41.766;26.204;2023-10-31T01:18:52;101118.16;;;13.10;100.00
10008;BME280;5043;41.766;26.204;2023-10-31T01:21:17;101132.97;;;13.13;100.00
10008;BME280;5043;41.766;26.204;2023-10-31T01:23:43;101114.53;;;13.12;100.00
10008;BME280;5043;41.766;26.204;2023-10-31T01:26:08;101121.91;;;13.08;100.00
10008;BME280;5043;41.766;26.204;2023-10-31T01:28:34;101109.97;;;13.14;100.00
10008;BME280;5043;41.766;26.204;2023-10-31T01:30:59;101115.78;;;13.19;100.00
10008;BME280;5043;41.766;26.204;2023-10-31T01:33:25;101105.41;;;13.16;100.00
10008;BME280;5043;41.766;26.204;2023-10-31T01:35:51;101126.50;;;13.28;99.19
10008;BME280;5043;41.766;26.204;2023-10-31T01:38:16;101113.63;;;13.24;98.95
10008;BME280;5043;41.766;26.204;2023-10-31T01:40:41;101118.19;;;13.22;98.83
10008;BME280;5043;41.766;26.204;2023-10-31T01:43:07;101115.53;;;13.22;98.68
10008;BME280;5043;41.766;26.204;2023-10-31T01:45:33;101117.22;;;13.23;98.34
10008;BME280;5043;41.766;26.204;2023-10-31T01:47:58;101074.25;;;12.95;98.53
10008;BME280;5043;41.766;26.204;2023-10-31T01:50:24;101119.78;;;13.24;99.01
10008;BME280;5043;41.766;26.204;2023-10-31T01:52:51;101118.06;;;13.23;98.94
10008;BME280;5043;41.766;26.204;2023-10-31T01:55:17;101134.69;;;13.25;99.10
10008;BME280;5043;41.766;26.204;2023-10-31T01:57:45;101112.97;;;13.09;99.17
10008;BME280;5043;41.766;26.204;2023-10-31T02:00:12;101139.97;;;13.14;99.35
10008;BME280;5043;41.766;26.204;2023-10-31T02:02:40;101125.38;;;13.08;99.69
10008;BME280;5043;41.766;26.204;2023-10-31T02:05:07;101124.63;;;13.06;99.80
10008;BME280;5043;41.766;26.204;2023-10-31T02:07:33;101120.00;;;12.97;99.74
10008;BME280;5043;41.766;26.204;2023-10-31T02:09:59;101111.06;;;12.87;99.88
10008;BME280;5043;41.766;26.204;2023-10-31T02:14:59;101115.81;;;12.71;100.00
10008;BME280;5043;41.766;26.204;2023-10-31T02:17:24;101124.31;;;12.64;100.00
10008;BME280;5043;41.766;26.204;2023-10-31T02:19:50;101113.16;;;12.48;100.00
10008;BME280;5043;41.766;26.204;2023-10-31T02:22:15;101115.19;;;12.44;100.00
10008;BME280;5043;41.766;26.204;2023-10-31T02:24:40;101122.09;;;12.34;100.00
10008;BME280;5043;41.766;26.204;2023-10-31T02:27:06;101103.94;;;12.17;100.00
10008;BME280;5043;41.766;26.204;2023-10-31T02:29:31;101111.69;;;12.20;100.00
10008;BME280;5043;41.766;26.204;2023-10-31T02:31:57;101111.41;;;12.12;100.00
10008;BME280;5043;41.766;26.204;2023-10-31T02:34:22;101117.50;;;12.12;100.00
10008;BME280;5043;41.766;26.204;2023-10-31T02:36:48;101106.75;;;12.03;100.00
10008;BME280;5043;41.766;26.204;2023-10-31T02:39:14;101066.44;;;11.50;100.00
10008;BME280;5043;41.766;26.204;2023-10-31T02:41:39;101070.34;;;11.45;100.00
10008;BME280;5043;41.766;26.204;2023-10-31T02:44:04;101117.69;;;11.60;100.00
10008;BME280;5043;41.766;26.204;2023-10-31T02:46:30;101071.63;;;11.39;100.00
10008;BME280;5043;41.766;26.204;2023-10-31T02:48:55;101112.72;;;11.68;100.00
10008;BME280;5043;41.766;26.204;2023-10-31T02:51:21;101099.06;;;11.62;100.00
10008;BME280;5043;41.766;26.204;2023-10-31T02:53:46;101115.66;;;11.64;100.00
10008;BME280;5043;41.766;26.204;2023-10-31T02:56:11;101128.16;;;11.62;100.00
10008;BME280;5043;41.766;26.204;2023-10-31T02:58:37;101139.66;;;11.61;100.00
10008;BME280;5043;41.766;26.204;2023-10-31T03:01:02;101142.41;;;11.59;100.00
10008;BME280;5043;41.766;26.204;2023-10-31T03:03:28;101126.88;;;11.55;100.00
10008;BME280;5043;41.766;26.204;2023-10-31T03:05:53;101126.34;;;11.50;100.00
10008;BME280;5043;41.766;26.204;2023-10-31T03:08:19;101112.31;;;11.37;100.00
10008;BME280;5043;41.766;26.204;2023-10-31T03:10:47;101119.91;;;11.41;100.00
10008;BME280;5043;41.766;26.204;2023-10-31T03:13:15;101124.97;;;11.44;100.00
10008;BME280;5043;41.766;26.204;2023-10-31T03:15:41;101128.78;;;11.40;100.00
10008;BME280;5043;41.766;26.204;2023-10-31T03:18:06;101126.13;;;11.40;100.00
10008;BME280;5043;41.766;26.204;2023-10-31T03:20:31;101127.72;;;11.43;100.00
10008;BME280;5043;41.766;26.204;2023-10-31T03:22:57;101126.78;;;11.44;100.00
10008;BME280;5043;41.766;26.204;2023-10-31T03:25:22;101079.50;;;11.14;100.00
10008;BME280;5043;41.766;26.204;2023-10-31T03:27:48;101125.06;;;11.43;100.00
10008;BME280;5043;41.766;26.204;2023-10-31T03:30:13;101099.81;;;11.39;100.00
10008;BME280;5043;41.766;26.204;2023-10-31T03:32:38;101102.22;;;11.42;100.00
10008;BME280;5043;41.766;26.204;2023-10-31T03:35:04;101070.03;;;11.24;100.00
10008;BME280;5043;41.766;26.204;2023-10-31T03:37:30;101118.63;;;11.59;100.00
10008;BME280;5043;41.766;26.204;2023-10-31T03:39:55;101114.41;;;11.57;100.00
10008;BME280;5043;41.766;26.204;2023-10-31T03:42:21;101115.25;;;11.57;100.00
10008;BME280;5043;41.766;26.204;2023-10-31T03:44:46;101102.56;;;11.62;100.00
10008;BME280;5043;41.766;26.204;2023-10-31T03:47:11;101114.94;;;11.62;100.00
10008;BME280;5043;41.766;26.204;2023-10-31T03:49:39;101110.81;;;11.58;100.00
10008;BME280;5043;41.766;26.204;2023-10-31T03:52:04;101116.59;;;11.63;100.00
10008;BME280;5043;41.766;26.204;2023-10-31T03:54:30;101117.69;;;11.60;100.00
10008;BME280;5043;41.766;26.204;2023-10-31T03:56:55;101109.25;;;11.68;100.00
10008;BME280;5043;41.766;26.204;2023-10-31T03:59:20;101112.91;;;11.65;100.00
10008;BME280;5043;41.766;26.204;2023-10-31T04:01:46;101106.03;;;11.63;100.00
10008;BME280;5043;41.766;26.204;2023-10-31T04:04:11;101091.06;;;11.51;100.00
10008;BME280;5043;41.766;26.204;2023-10-31T04:06:37;101122.66;;;11.65;100.00
10008;BME280;5043;41.766;26.204;2023-10-31T04:09:06;101101.72;;;11.62;100.00
10008;BME280;5043;41.766;26.204;2023-10-31T04:11:32;101103.19;;;11.66;100.00
10008;BME280;5043;41.766;26.204;2023-10-31T04:13:57;101108.59;;;11.64;100.00
10008;BME280;5043;41.766;26.204;2023-10-31T04:16:23;101112.28;;;11.62;100.00
10008;BME280;5043;41.766;26.204;2023-10-31T04:18:48;101102.56;;;11.62;100.00
10008;BME280;5043;41.766;26.204;2023-10-31T04:21:14;101133.31;;;11.63;100.00
10008;BME280;5043;41.766;26.204;2023-10-31T04:23:39;101101.72;;;11.62;100.00
10008;BME280;5043;41.766;26.204;2023-10-31T04:26:05;101115.53;;;11.65;100.00
10008;BME280;5043;41.766;26.204;2023-10-31T04:28:30;101104.69;;;11.70;100.00
10008;BME280;5043;41.766;26.204;2023-10-31T04:30:56;101115.91;;;11.73;100.00
10008;BME280;5043;41.766;26.204;2023-10-31T04:33:21;101114.84;;;11.76;100.00
10008;BME280;5043;41.766;26.204;2023-10-31T04:35:47;101118.75;;;11.70;100.00
10008;BME280;5043;41.766;26.204;2023-10-31T04:38:12;101120.94;;;11.64;100.00
10008;BME280;5043;41.766;26.204;2023-10-31T04:40:38;101124.53;;;11.63;100.00
10008;BME280;5043;41.766;26.204;2023-10-31T04:43:03;101122.38;;;11.69;100.00
10008;BME280;5043;41.766;26.204;2023-10-31T04:45:28;101114.94;;;11.62;100.00
10008;BME280;5043;41.766;26.204;2023-10-31T04:47:54;101123.19;;;11.70;100.00
10008;BME280;5043;41.766;26.204;2023-10-31T04:50:19;101129.13;;;11.73;100.00
10008;BME280;5043;41.766;26.204;2023-10-31T04:52:45;101138.63;;;11.76;99.60
10008;BME280;5043;41.766;26.204;2023-10-31T04:55:10;101129.00;;;11.75;99.78
10008;BME280;5043;41.766;26.204;2023-10-31T04:57:36;101083.13;;;11.51;99.63
10008;BME280;5043;41.766;26.204;2023-10-31T05:00:01;101144.53;;;11.80;99.21
10008;BME280;5043;41.766;26.204;2023-10-31T05:02:28;101133.56;;;11.73;98.86
10008;BME280;5043;41.766;26.204;2023-10-31T05:04:54;101139.38;;;11.78;98.72
10008;BME280;5043;41.766;26.204;2023-10-31T05:07:19;101139.78;;;11.85;98.12
10008;BME280;5043;41.766;26.204;2023-10-31T05:09:45;101137.66;;;11.77;97.87
10008;BME280;5043;41.766;26.204;2023-10-31T05:12:11;101148.16;;;11.79;97.34
10008;BME280;5043;41.766;26.204;2023-10-31T05:14:36;101133.75;;;11.70;97.99
10008;BME280;5043;41.766;26.204;2023-10-31T05:17:02;101136.69;;;11.65;98.12
10008;BME280;5043;41.766;26.204;2023-10-31T05:19:27;101131.72;;;11.61;98.57
10008;BME280;5043;41.766;26.204;2023-10-31T05:21:53;101151.66;;;11.79;98.24
10008;BME280;5043;41.766;26.204;2023-10-31T05:24:18;101162.09;;;11.81;98.44
10008;BME280;5043;41.766;26.204;2023-10-31T05:26:44;101161.03;;;11.83;98.82
10008;BME280;5043;41.766;26.204;2023-10-31T05:29:10;101155.97;;;11.93;98.83
10008;BME280;5043;41.766;26.204;2023-10-31T05:31:36;101144.53;;;11.92;98.90
10008;BME280;5043;41.766;26.204;2023-10-31T05:34:02;101160.59;;;12.02;99.10
10008;BME280;5043;41.766;26.204;2023-10-31T05:36:29;101163.44;;;12.11;99.12
10008;BME280;5043;41.766;26.204;2023-10-31T05:38:54;101154.00;;;12.20;99.04
10008;BME280;5043;41.766;26.204;2023-10-31T05:41:20;101152.81;;;12.24;98.52
10008;BME280;5043;41.766;26.204;2023-10-31T05:43:45;101177.97;;;12.42;98.11
10008;BME280;5043;41.766;26.204;2023-10-31T05:46:10;101159.84;;;12.49;98.14
10008;BME280;5043;41.766;26.204;2023-10-31T05:48:38;101156.75;;;12.55;97.50
10008;BME280;5043;41.766;26.204;2023-10-31T05:51:10;101187.44;;;12.57;97.59
10008;BME280;5043;41.766;26.204;2023-10-31T05:53:36;101171.81;;;12.54;97.74
10008;BME280;5043;41.766;26.204;2023-10-31T05:56:02;101172.28;;;12.59;97.70
10008;BME280;5043;41.766;26.204;2023-10-31T05:58:27;101169.00;;;12.68;97.77
10008;BME280;5043;41.766;26.204;2023-10-31T06:00:53;101176.53;;;12.85;97.44
10008;BME280;5043;41.766;26.204;2023-10-31T06:03:19;101177.06;;;13.01;96.56
10008;BME280;5043;41.766;26.204;2023-10-31T06:05:44;101188.47;;;12.91;96.68
10008;BME280;5043;41.766;26.204;2023-10-31T06:08:11;101152.19;;;12.80;96.56
10008;BME280;5043;41.766;26.204;2023-10-31T06:10:36;101186.22;;;12.97;97.74
10008;BME280;5043;41.766;26.204;2023-10-31T06:13:02;101180.41;;;12.92;98.12
10008;BME280;5043;41.766;26.204;2023-10-31T06:15:27;101141.13;;;12.75;98.00
10008;BME280;5043;41.766;26.204;2023-10-31T06:17:52;101192.44;;;13.09;98.36
10008;BME280;5043;41.766;26.204;2023-10-31T06:20:18;101192.25;;;13.23;98.68
10008;BME280;5043;41.766;26.204;2023-10-31T06:22:43;101192.53;;;13.31;98.87
10008;BME280;5043;41.766;26.204;2023-10-31T06:25:09;101170.72;;;13.39;99.19
10008;BME280;5043;41.766;26.204;2023-10-31T06:27:35;101180.88;;;13.45;99.94
10008;BME280;5043;41.766;26.204;2023-10-31T06:30:00;101179.31;;;13.53;100.00
10008;BME280;5043;41.766;26.204;2023-10-31T06:32:25;101171.88;;;13.69;100.00
10008;BME280;5043;41.766;26.204;2023-10-31T06:34:51;101172.28;;;13.76;100.00
10008;BME280;5043;41.766;26.204;2023-10-31T06:37:16;101178.31;;;13.89;100.00
10008;BME280;5043;41.766;26.204;2023-10-31T06:39:41;101167.81;;;13.88;100.00
10008;BME280;5043;41.766;26.204;2023-10-31T06:42:07;101168.41;;;14.02;100.00
10008;BME280;5043;41.766;26.204;2023-10-31T06:44:32;101161.44;;;14.01;100.00
10008;BME280;5043;41.766;26.204;2023-10-31T06:46:58;101149.25;;;13.99;100.00
10008;BME280;5043;41.766;26.204;2023-10-31T06:49:23;101170.81;;;14.16;100.00
10008;BME280;5043;41.766;26.204;2023-10-31T06:51:49;101159.00;;;14.20;100.00
10008;BME280;5043;41.766;26.204;2023-10-31T06:54:14;101165.06;;;14.33;100.00
10008;BME280;5043;41.766;26.204;2023-10-31T06:56:40;101158.66;;;14.36;100.00
10008;BME280;5043;41.766;26.204;2023-10-31T06:59:05;101163.59;;;14.40;100.00
10008;BME280;5043;41.766;26.204;2023-10-31T07:01:31;101177.94;;;14.38;100.00
10008;BME280;5043;41.766;26.204;2023-10-31T07:03:56;101164.06;;;14.45;100.00
10008;BME280;5043;41.766;26.204;2023-10-31T07:06:22;101172.84;;;14.57;100.00
10008;BME280;5043;41.766;26.204;2023-10-31T07:08:47;101170.28;;;14.67;100.00
10008;BME280;5043;41.766;26.204;2023-10-31T07:11:13;101168.69;;;14.75;100.00
10008;BME280;5043;41.766;26.204;2023-10-31T07:13:38;101168.41;;;14.89;100.00
10008;BME280;5043;41.766;26.204;2023-10-31T07:16:04;101167.22;;;14.82;100.00
10008;BME280;5043;41.766;26.204;2023-10-31T07:18:30;101178.06;;;14.90;100.00
10008;BME280;5043;41.766;26.204;2023-10-31T07:20:56;101175.50;;;15.00;100.00
10008;BME280;5043;41.766;26.204;2023-10-31T07:23:21;101160.91;;;14.94;100.00
10008;BME280;5043;41.766;26.204;2023-10-31T07:25:47;101165.19;;;15.06;100.00
10008;BME280;5043;41.766;26.204;2023-10-31T07:28:13;101173.72;;;15.21;100.00
10008;BME280;5043;41.766;26.204;2023-10-31T07:30:38;101158.47;;;15.23;100.00
10008;BME280;5043;41.766;26.204;2023-10-31T07:33:03;101164.69;;;15.44;100.00
10008;BME280;5043;41.766;26.204;2023-10-31T07:35:29;101136.84;;;15.48;100.00
10008;BME280;5043;41.766;26.204;2023-10-31T07:37:54;101162.31;;;15.71;100.00
10008;BME280;5043;41.766;26.204;2023-10-31T07:40:20;101153.59;;;15.90;100.00
10008;BME280;5043;41.766;26.204;2023-10-31T07:42:45;101146.53;;;16.10;100.00
10008;BME280;5043;41.766;26.204;2023-10-31T07:45:11;101152.19;;;16.26;100.00
10008;BME280;5043;41.766;26.204;2023-10-31T07:47:36;101153.88;;;16.36;100.00
10008;BME280;5043;41.766;26.204;2023-10-31T07:50:05;101144.00;;;16.48;100.00
10008;BME280;5043;41.766;26.204;2023-10-31T07:52:31;101156.22;;;16.70;100.00
10008;BME280;5043;41.766;26.204;2023-10-31T07:54:56;101148.94;;;16.81;100.00
10008;BME280;5043;41.766;26.204;2023-10-31T07:57:22;101147.84;;;16.93;100.00
10008;BME280;5043;41.766;26.204;2023-10-31T07:59:47;101111.09;;;16.87;100.00
10008;BME280;5043;41.766;26.204;2023-10-31T08:02:13;101140.53;;;17.24;100.00
10008;BME280;5043;41.766;26.204;2023-10-31T08:04:38;101145.84;;;17.34;100.00
10008;BME280;5043;41.766;26.204;2023-10-31T08:07:04;101138.28;;;17.29;100.00
10008;BME280;5043;41.766;26.204;2023-10-31T08:09:29;101140.78;;;17.50;100.00
10008;BME280;5043;41.766;26.204;2023-10-31T08:11:55;101148.78;;;17.50;100.00
10008;BME280;5043;41.766;26.204;2023-10-31T08:14:20;101133.63;;;17.60;100.00
10008;BME280;5043;41.766;26.204;2023-10-31T08:16:47;101146.94;;;17.69;100.00
10008;BME280;5043;41.766;26.204;2023-10-31T08:19:12;101138.50;;;17.74;100.00
10008;BME280;5043;41.766;26.204;2023-10-31T08:21:39;101135.09;;;17.81;100.00
10008;BME280;5043;41.766;26.204;2023-10-31T08:24:05;101148.78;;;17.96;100.00
10008;BME280;5043;41.766;26.204;2023-10-31T08:26:31;101140.22;;;18.02;100.00
10008;BME280;5043;41.766;26.204;2023-10-31T08:28:57;101146.94;;;18.06;100.00
10008;BME280;5043;41.766;26.204;2023-10-31T08:31:23;101146.50;;;18.11;100.00
10008;BME280;5043;41.766;26.204;2023-10-31T08:33:49;101138.28;;;18.22;100.00
10008;BME280;5043;41.766;26.204;2023-10-31T08:36:14;101138.28;;;18.22;100.00
10008;BME280;5043;41.766;26.204;2023-10-31T08:38:40;101134.28;;;18.35;100.00
10008;BME280;5043;41.766;26.204;2023-10-31T08:41:05;101116.50;;;18.44;100.00
10008;BME280;5043;41.766;26.204;2023-10-31T08:43:31;101127.63;;;18.67;100.00
10008;BME280;5043;41.766;26.204;2023-10-31T08:45:56;101097.31;;;18.58;100.00
10008;BME280;5043;41.766;26.204;2023-10-31T08:48:21;101113.28;;;18.68;100.00
10008;BME280;5043;41.766;26.204;2023-10-31T08:50:47;101121.44;;;18.84;100.00
10008;BME280;5043;41.766;26.204;2023-10-31T08:53:14;101111.44;;;19.03;100.00
10008;BME280;5043;41.766;26.204;2023-10-31T08:55:39;101103.63;;;19.10;100.00
10008;BME280;5043;41.766;26.204;2023-10-31T08:58:09;101109.34;;;19.58;100.00
10008;BME280;5043;41.766;26.204;2023-10-31T09:00:35;101068.19;;;19.59;100.00
10008;BME280;5043;41.766;26.204;2023-10-31T09:03:00;101102.94;;;20.19;100.00
10008;BME280;5043;41.766;26.204;2023-10-31T09:05:25;101104.72;;;20.44;99.14
10008;BME280;5043;41.766;26.204;2023-10-31T09:07:51;101098.56;;;20.68;97.42
10008;BME280;5043;41.766;26.204;2023-10-31T09:10:16;101095.22;;;20.90;95.56
10008;BME280;5043;41.766;26.204;2023-10-31T09:12:42;101063.38;;;20.79;95.01
10008;BME280;5043;41.766;26.204;2023-10-31T09:15:07;101098.41;;;21.42;94.06
10008;BME280;5043;41.766;26.204;2023-10-31T09:17:34;101093.56;;;22.00;90.58
10008;BME280;5043;41.766;26.204;2023-10-31T09:20:00;101094.56;;;22.91;86.09
10008;BME280;5043;41.766;26.204;2023-10-31T09:22:25;101089.50;;;23.92;80.49
10008;BME280;5043;41.766;26.204;2023-10-31T09:24:51;101075.06;;;24.86;75.15
10008;BME280;5043;41.766;26.204;2023-10-31T09:27:16;101075.69;;;25.99;67.89
10008;BME280;5043;41.766;26.204;2023-10-31T09:29:41;101044.28;;;26.78;60.86
10008;BME280;5043;41.766;26.204;2023-10-31T09:32:07;101058.03;;;27.61;56.81
10008;BME280;5043;41.766;26.204;2023-10-31T09:34:32;101053.50;;;28.13;52.84
10008;BME280;5043;41.766;26.204;2023-10-31T09:36:58;101045.56;;;28.80;50.01
10008;BME280;5043;41.766;26.204;2023-10-31T09:39:23;101036.00;;;29.45;46.74
10008;BME280;5043;41.766;26.204;2023-10-31T09:41:49;101021.75;;;29.68;44.93
10008;BME280;5043;41.766;26.204;2023-10-31T09:44:15;101008.66;;;29.94;44.20
10008;BME280;5043;41.766;26.204;2023-10-31T09:46:40;101010.88;;;30.16;43.11
10008;BME280;5043;41.766;26.204;2023-10-31T09:49:07;101007.47;;;30.50;42.06
10008;BME280;5043;41.766;26.204;2023-10-31T09:51:33;100990.91;;;30.63;41.34
10008;BME280;5043;41.766;26.204;2023-10-31T09:54:02;100991.56;;;31.00;40.23
10008;BME280;5043;41.766;26.204;2023-10-31T09:56:28;100987.06;;;31.17;39.67
10008;BME280;5043;41.766;26.204;2023-10-31T09:59:04;100972.97;;;31.20;39.58
10008;BME280;5043;41.766;26.204;2023-10-31T10:01:29;100965.06;;;31.58;38.78
10008;BME280;5043;41.766;26.204;2023-10-31T10:03:56;100967.00;;;31.58;38.42
10008;BME280;5043;41.766;26.204;2023-10-31T10:06:21;100960.44;;;31.99;37.50
10008;BME280;5043;41.766;26.204;2023-10-31T10:08:49;100946.78;;;31.99;37.28
10008;BME280;5043;41.766;26.204;2023-10-31T10:11:15;100942.38;;;31.69;37.70
10008;BME280;5043;41.766;26.204;2023-10-31T10:13:40;100938.06;;;31.34;38.57
10008;BME280;5043;41.766;26.204;2023-10-31T10:16:06;100916.50;;;31.32;38.50
10008;BME280;5043;41.766;26.204;2023-10-31T10:18:33;100924.44;;;31.22;38.90
10008;BME280;5043;41.766;26.204;2023-10-31T10:21:01;100924.13;;;31.58;38.88
10008;BME280;5043;41.766;26.204;2023-10-31T10:23:29;100921.03;;;30.80;39.50
10008;BME280;5043;41.766;26.204;2023-10-31T10:25:56;100919.31;;;31.25;38.69
10008;BME280;5043;41.766;26.204;2023-10-31T10:28:22;100904.28;;;31.35;38.84
10008;BME280;5043;41.766;26.204;2023-10-31T10:30:50;100912.94;;;31.71;37.80
10008;BME280;5043;41.766;26.204;2023-10-31T10:33:17;100907.84;;;31.63;37.85
10008;BME280;5043;41.766;26.204;2023-10-31T10:35:43;100897.00;;;31.80;37.00
10008;BME280;5043;41.766;26.204;2023-10-31T10:38:16;100897.00;;;32.08;36.80
10008;BME280;5043;41.766;26.204;2023-10-31T10:40:47;100854.88;;;32.04;35.99
10008;BME280;5043;41.766;26.204;2023-10-31T10:43:24;100892.31;;;32.37;35.13
10008;BME280;5043;41.766;26.204;2023-10-31T10:45:55;100884.94;;;31.92;35.86
10008;BME280;5043;41.766;26.204;2023-10-31T10:48:25;100879.34;;;31.71;36.03
10008;BME280;5043;41.766;26.204;2023-10-31T10:50:57;100884.13;;;31.64;36.24
10008;BME280;5043;41.766;26.204;2023-10-31T10:53:29;100882.13;;;31.59;36.40
10008;BME280;5043;41.766;26.204;2023-10-31T10:56:13;100869.50;;;31.30;36.45
10008;BME280;5043;41.766;26.204;2023-10-31T10:58:51;100868.13;;;31.27;36.94
10008;BME280;5043;41.766;26.204;2023-10-31T11:01:20;100856.38;;;31.67;36.28
10008;BME280;5043;41.766;26.204;2023-10-31T11:03:46;100856.91;;;31.52;36.30
10008;BME280;5043;41.766;26.204;2023-10-31T11:06:12;100845.03;;;31.07;36.97
10008;BME280;5043;41.766;26.204;2023-10-31T11:08:40;100848.84;;;30.83;38.02
10008;BME280;5043;41.766;26.204;2023-10-31T11:11:05;100838.44;;;30.80;38.10
10008;BME280;5043;41.766;26.204;2023-10-31T11:13:32;100831.84;;;30.52;38.92
10008;BME280;5043;41.766;26.204;2023-10-31T11:16:03;100825.75;;;30.97;37.95
10008;BME280;5043;41.766;26.204;2023-10-31T11:18:29;100825.88;;;30.90;38.00
10008;BME280;5043;41.766;26.204;2023-10-31T11:20:55;100820.66;;;30.89;37.70
10008;BME280;5043;41.766;26.204;2023-10-31T11:23:21;100818.88;;;31.34;36.81
10008;BME280;5043;41.766;26.204;2023-10-31T11:25:49;100821.84;;;32.06;35.69
10008;BME280;5043;41.766;26.204;2023-10-31T11:28:16;100809.72;;;32.90;34.36
10008;BME280;5043;41.766;26.204;2023-10-31T11:30:43;100817.97;;;34.18;31.95
10008;BME280;5043;41.766;26.204;2023-10-31T11:33:12;100806.53;;;35.30;30.10
10008;BME280;5043;41.766;26.204;2023-10-31T11:35:40;100790.09;;;36.51;28.21
10008;BME280;5043;41.766;26.204;2023-10-31T11:38:09;100795.41;;;37.60;26.90
10008;BME280;5043;41.766;26.204;2023-10-31T11:41:00;100791.31;;;38.78;25.48
10008;BME280;5043;41.766;26.204;2023-10-31T11:43:55;100775.19;;;39.97;24.14
10008;BME280;5043;41.766;26.204;2023-10-31T11:46:22;100776.34;;;40.69;23.33
10008;BME280;5043;41.766;26.204;2023-10-31T11:48:52;100766.19;;;41.05;22.60
10008;BME280;5043;41.766;26.204;2023-10-31T11:51:18;100764.66;;;41.70;21.65
10008;BME280;5043;41.766;26.204;2023-10-31T11:53:45;100764.97;;;42.22;20.93
10008;BME280;5043;41.766;26.204;2023-10-31T11:56:11;100761.06;;;41.92;21.32
10008;BME280;5043;41.766;26.204;2023-10-31T11:58:37;100759.16;;;42.80;20.42
10008;BME280;5043;41.766;26.204;2023-10-31T12:01:05;100751.28;;;43.47;19.95
10008;BME280;5043;41.766;26.204;2023-10-31T12:03:42;100728.50;;;43.62;19.60
10008;BME280;5043;41.766;26.204;2023-10-31T12:06:09;100742.41;;;43.79;19.32
10008;BME280;5043;41.766;26.204;2023-10-31T12:08:36;100745.81;;;44.39;18.39
10008;BME280;5043;41.766;26.204;2023-10-31T12:13:41;100720.25;;;44.37;18.44
10008;BME280;5043;41.766;26.204;2023-10-31T12:16:09;100715.25;;;44.60;18.10
10008;BME280;5043;41.766;26.204;2023-10-31T12:18:35;100719.88;;;44.77;17.46
10008;BME280;5043;41.766;26.204;2023-10-31T12:21:02;100717.75;;;44.53;17.77
10008;BME280;5043;41.766;26.204;2023-10-31T12:23:28;100687.41;;;43.85;18.16
10008;BME280;5043;41.766;26.204;2023-10-31T12:25:54;100690.25;;;43.07;18.89
10008;BME280;5043;41.766;26.204;2023-10-31T12:28:24;100676.06;;;42.35;19.81
10008;BME280;5043;41.766;26.204;2023-10-31T12:30:53;100681.72;;;42.13;19.82
10008;BME280;5043;41.766;26.204;2023-10-31T12:33:26;100689.09;;;40.17;21.55
10008;BME280;5043;41.766;26.204;2023-10-31T12:35:57;100675.44;;;37.73;23.41
10008;BME280;5043;41.766;26.204;2023-10-31T12:38:23;100669.25;;;36.11;25.44
10008;BME280;5043;41.766;26.204;2023-10-31T12:40:49;100665.19;;;35.58;26.50
10008;BME280;5043;41.766;26.204;2023-10-31T12:43:16;100659.66;;;35.83;26.54
10008;BME280;5043;41.766;26.204;2023-10-31T12:45:42;100655.28;;;35.57;26.53